Time;durP1;ratioP1;P1;durP2;ratioP2;P2;SDS_P1;SDS_P2;PMS_P1;PMS_P2;Temp;Humidity;BMP_temperature;BMP_pressure;BME280_temperature;BME280_humidity;BME280_pressure;Samples;Min_cycle;Max_cycle;Signal;HPM_P1;HPM_P2
2022/10/19 00:02:35;;;;;;;1.37;0.90;;;;;;;19.01;64.46;97490.25;10554714;28;20028;-30
2022/10/19 00:07:35;;;;;;;0.73;0.73;;;;;;;18.98;64.35;97485.13;10556195;28;20042;-30
2022/10/19 00:12:36;;;;;;;0.70;0.70;;;;;;;18.99;64.40;97487.69;10560093;28;20489;-30
2022/10/19 00:17:36;;;;;;;0.98;0.68;;;;;;;18.98;64.40;97480.03;10564235;28;20028;-30
2022/10/19 00:22:37;;;;;;;1.10;0.75;;;;;;;18.99;64.19;97474.16;10553624;28;20173;-31
2022/10/19 00:27:37;;;;;;;1.35;0.80;;;;;;;18.99;64.25;97476.69;10558998;28;20035;-31
2022/10/19 00:32:38;;;;;;;2.45;0.90;;;;;;;19.14;68.61;97469.19;10546013;28;20443;-31
2022/10/19 00:37:38;;;;;;;1.10;1.00;;;;;;;19.20;68.55;97471.84;10554729;28;20041;-31
2022/10/19 00:42:38;;;;;;;1.17;0.90;;;;;;;19.21;66.02;97473.53;10551188;28;20419;-31
2022/10/19 00:47:41;;;;;;;0.80;0.80;;;;;;;19.13;65.36;97475.13;10559684;28;20034;-30
2022/10/19 00:52:42;;;;;;;1.52;1.08;;;;;;;19.10;64.82;97477.63;10553798;28;20338;-31
2022/10/19 00:57:42;;;;;;;1.20;1.00;;;;;;;19.01;64.73;97460.63;10561185;28;20096;-31
2022/10/19 01:02:43;;;;;;;1.27;1.10;;;;;;;19.09;64.39;97473.41;10558412;28;20031;-31
2022/10/19 01:07:43;;;;;;;1.25;1.08;;;;;;;19.01;64.47;97464.88;10555995;28;20286;-30
2022/10/19 01:13:05;;;;;;;1.17;0.80;;;;;;;18.99;64.40;97467.38;10561289;28;20036;-30
2022/10/19 01:18:14;;;;;;;1.15;1.05;;;;;;;18.99;64.21;97466.53;10562409;28;20028;-30
2022/10/19 01:23:41;;;;;;;0.60;0.60;;;;;;;18.98;64.36;97462.28;10551464;28;20535;-30
2022/10/19 01:29:12;;;;;;;0.57;0.57;;;;;;;18.97;64.13;97463.97;10548822;28;20467;-33
2022/10/19 01:34:21;;;;;;;2.85;1.10;;;;;;;19.08;67.50;97459.00;10557883;28;20032;-30
2022/10/19 01:39:26;;;;;;;1.50;0.98;;;;;;;19.19;68.10;97455.75;10555571;28;20428;-32
2022/10/19 01:44:35;;;;;;;1.50;1.40;;;;;;;19.21;67.08;97449.00;10555539;28;20059;-30
2022/10/19 01:49:50;;;;;;;0.95;0.80;;;;;;;19.16;64.91;97442.16;10541643;28;20081;-30
2022/10/19 01:54:55;;;;;;;2.63;1.13;;;;;;;19.12;65.08;97442.97;10554770;28;20545;-30
2022/10/19 01:59:56;;;;;;;1.50;1.00;;;;;;;19.05;64.53;97434.44;10555851;28;20413;-33
2022/10/19 02:04:58;;;;;;;0.73;0.70;;;;;;;19.05;64.28;97438.66;10555370;28;20107;-30
2022/10/19 02:09:58;;;;;;;0.75;0.70;;;;;;;18.99;64.41;97436.91;10559763;28;20505;-31
2022/10/19 02:15:06;;;;;;;0.70;0.60;;;;;;;18.99;64.25;97441.16;10563379;28;20066;-31
2022/10/19 02:20:07;;;;;;;0.60;0.60;;;;;;;18.96;64.23;97438.56;10560277;28;20034;-31
2022/10/19 02:25:09;;;;;;;0.90;0.63;;;;;;;18.96;64.16;97436.03;10565411;28;20035;-31
2022/10/19 02:30:15;;;;;;;0.93;0.60;;;;;;;18.96;64.11;97428.44;10565742;28;20035;-30
2022/10/19 02:35:15;;;;;;;1.08;0.65;;;;;;;18.94;64.19;97415.75;10567616;28;20031;-30
2022/10/19 02:40:16;;;;;;;1.95;1.52;;;;;;;19.17;68.12;97410.88;10562800;28;20043;-31
2022/10/19 02:45:26;;;;;;;1.25;1.00;;;;;;;19.21;68.52;97397.38;10566904;28;20450;-31
2022/10/19 02:50:26;;;;;;;1.42;0.85;;;;;;;19.17;66.06;97391.38;10567476;28;20031;-30
2022/10/19 02:55:29;;;;;;;1.88;0.98;;;;;;;19.09;64.97;97392.19;10568997;28;20027;-31
2022/10/19 03:00:29;;;;;;;1.23;1.13;;;;;;;19.06;64.21;97397.22;10558160;28;20030;-30
2022/10/19 03:05:30;;;;;;;0.83;0.83;;;;;;;19.03;64.36;97402.28;10567185;28;20036;-31
2022/10/19 03:10:30;;;;;;;0.80;0.80;;;;;;;19.02;64.33;97398.03;10564637;28;20036;-31
2022/10/19 03:15:30;;;;;;;1.83;1.00;;;;;;;19.03;64.27;97402.28;10555781;28;20525;-30
2022/10/19 03:20:31;;;;;;;1.63;1.33;;;;;;;18.98;64.23;97386.13;10557798;28;20297;-31
2022/10/19 03:25:31;;;;;;;0.90;0.73;;;;;;;18.99;63.90;97392.94;10563302;28;20032;-30
2022/10/19 03:30:32;;;;;;;0.57;0.40;;;;;;;18.95;64.30;97383.59;10567299;28;20293;-30
2022/10/19 03:35:32;;;;;;;1.00;0.67;;;;;;;18.98;64.12;97388.69;10557328;28;20647;-29
2022/10/19 03:40:32;;;;;;;2.30;0.93;;;;;;;19.03;66.40;97387.91;10559011;28;20374;-30
2022/10/19 03:45:33;;;;;;;3.80;1.17;;;;;;;19.16;67.24;97383.78;10567192;28;20389;-31
2022/10/19 03:50:33;;;;;;;2.47;1.47;;;;;;;19.23;67.81;97390.63;10556581;28;20114;-31
2022/10/19 03:55:33;;;;;;;1.13;0.77;;;;;;;19.17;64.92;97385.47;10564956;28;20031;-30
2022/10/19 04:00:34;;;;;;;0.75;0.75;;;;;;;19.04;64.79;97359.16;10559010;28;20027;-31
2022/10/19 04:05:34;;;;;;;1.10;1.00;;;;;;;19.07;64.41;97369.31;10556241;28;20031;-31
2022/10/19 04:10:35;;;;;;;1.33;1.20;;;;;;;19.05;64.25;97365.06;10556726;28;20371;-29
2022/10/19 04:15:35;;;;;;;2.83;1.10;;;;;;;19.05;64.51;97365.06;10533194;28;20032;-31
2022/10/19 04:20:37;;;;;;;1.33;1.10;;;;;;;19.02;64.30;97365.03;10555980;28;20298;-30
2022/10/19 04:25:37;;;;;;;1.10;0.77;;;;;;;18.99;64.37;97367.56;10541638;28;20036;-31
2022/10/19 04:30:38;;;;;;;1.53;0.70;;;;;;;18.98;64.06;97358.22;10564474;28;20393;-30
2022/10/19 04:35:38;;;;;;;0.53;0.53;;;;;;;18.95;64.16;97369.22;10559116;27;20481;-30
2022/10/19 04:40:39;;;;;;;4.67;1.90;;;;;;;18.90;65.16;97365.78;10557451;28;20027;-31
2022/10/19 04:45:39;;;;;;;9.30;2.28;;;;;;;18.87;65.25;97370.84;10563250;28;20620;-31
2022/10/19 04:50:39;;;;;;;4.03;2.20;;;;;;;18.79;65.02;97354.72;10554636;28;20398;-31
2022/10/19 04:55:41;;;;;;;3.27;2.13;;;;;;;18.72;64.64;97360.56;10562120;28;20287;-30
2022/10/19 05:00:41;;;;;;;3.25;2.30;;;;;;;18.72;64.86;97359.69;10551826;28;20023;-31
2022/10/19 05:05:42;;;;;;;4.80;2.17;;;;;;;18.87;64.30;97359.84;10554760;28;20028;-30
2022/10/19 05:10:42;;;;;;;16.00;4.63;;;;;;;18.79;64.55;97351.31;10560165;28;20035;-30
2022/10/19 05:15:43;;;;;;;5.80;2.50;;;;;;;18.90;64.38;97345.50;10557589;28;20535;-30
2022/10/19 05:20:43;;;;;;;13.93;4.83;;;;;;;18.91;64.23;97343.81;10552628;28;20301;-30
2022/10/19 05:25:43;;;;;;;16.00;3.60;;;;;;;18.83;64.52;97348.81;10558848;28;20027;-32
2022/10/19 05:30:44;;;;;;;9.68;2.90;;;;;;;18.80;64.45;97347.94;10562879;28;20027;-30
2022/10/19 05:35:45;;;;;;;2.85;1.55;;;;;;;18.86;64.19;97342.91;10561812;28;20040;-29
2022/10/19 05:40:46;;;;;;;5.20;1.90;;;;;;;18.89;63.97;97348.00;10557203;28;20031;-30
2022/10/19 05:45:46;;;;;;;4.95;2.35;;;;;;;18.84;64.43;97354.75;10557415;28;20032;-31
2022/10/19 05:50:53;;;;;;;10.40;3.30;;;;;;;19.05;66.36;97362.53;10569559;28;20028;-30
2022/10/19 05:55:53;;;;;;;8.20;2.60;;;;;;;19.13;65.74;97363.44;10563877;28;20285;-31
2022/10/19 06:00:57;;;;;;;5.72;2.58;;;;;;;19.10;65.01;97360.88;10566639;28;20609;-30
2022/10/19 06:06:01;;;;;;;4.97;1.88;;;;;;;18.88;64.08;97339.56;10564432;28;20036;-31
2022/10/19 06:11:12;;;;;;;4.95;1.90;;;;;;;19.00;63.86;97361.66;10569728;28;20035;-30
2022/10/19 06:16:14;;;;;;;5.85;1.75;;;;;;;18.92;63.87;97348.06;10562448;28;20042;-30
2022/10/19 06:21:17;;;;;;;8.20;2.45;;;;;;;18.87;63.86;97337.00;10562078;28;20023;-30
2022/10/19 06:26:18;;;;;;;4.28;1.85;;;;;;;18.94;63.71;97351.44;10567712;28;20118;-30
2022/10/19 06:31:19;;;;;;;4.95;2.17;;;;;;;18.91;63.64;97348.91;10564306;28;20404;-30
2022/10/19 06:36:21;;;;;;;4.45;2.38;;;;;;;18.91;63.86;97341.28;10561298;28;20031;-31
2022/10/19 06:41:22;;;;;;;4.72;2.22;;;;;;;18.92;63.99;97342.97;10562779;28;20111;-31
2022/10/19 06:46:24;;;;;;;3.13;1.95;;;;;;;18.92;63.78;97353.13;10565610;28;20085;-30
2022/10/19 06:51:27;;;;;;;3.53;2.05;;;;;;;19.00;65.61;97359.13;10566049;28;20031;-30
2022/10/19 06:56:28;;;;;;;3.88;2.25;;;;;;;19.12;65.31;97364.28;10565700;28;20063;-31
2022/10/19 07:01:28;;;;;;;2.83;1.83;;;;;;;19.09;64.81;97354.09;10562881;28;20112;-31
2022/10/19 07:06:29;;;;;;;2.10;1.80;;;;;;;19.10;64.46;97354.09;10558895;28;20461;-30
2022/10/19 07:11:29;;;;;;;3.77;1.87;;;;;;;19.05;63.85;97359.97;10563265;28;20043;-31
2022/10/19 07:16:29;;;;;;;4.82;2.42;;;;;;;19.03;63.88;97351.50;10567532;28;20028;-30
2022/10/19 07:21:30;;;;;;;4.43;2.20;;;;;;;19.02;63.84;97359.97;10557337;28;20469;-31
2022/10/19 07:26:32;;;;;;;2.78;1.95;;;;;;;18.95;63.91;97341.31;10561279;28;20400;-31
2022/10/19 07:31:33;;;;;;;3.47;2.00;;;;;;;18.98;63.71;97343.88;10565207;28;20029;-29
2022/10/19 07:36:34;;;;;;;2.65;1.80;;;;;;;18.98;64.16;97343.00;10556460;28;20036;-31
2022/10/19 07:41:35;;;;;;;3.92;1.77;;;;;;;18.97;63.73;97343.84;10559512;28;20303;-31
2022/10/19 07:46:38;;;;;;;3.10;2.07;;;;;;;18.97;63.78;97346.38;10563211;28;20458;-31
2022/10/19 07:51:39;;;;;;;4.22;2.22;;;;;;;18.97;63.68;97347.25;10564786;28;20393;-30
2022/10/19 07:56:39;;;;;;;3.10;2.13;;;;;;;19.08;65.89;97349.88;10565681;28;20036;-30
2022/10/19 08:01:40;;;;;;;2.50;2.00;;;;;;;19.15;65.80;97341.44;10559748;28;20031;-31
2022/10/19 08:06:40;;;;;;;2.50;1.55;;;;;;;19.15;64.75;97349.06;10559462;28;20023;-30
2022/10/19 08:11:41;;;;;;;1.83;1.57;;;;;;;19.08;64.75;97352.41;10563370;28;20027;-30
2022/10/19 08:16:43;;;;;;;2.83;2.00;;;;;;;19.04;63.95;97353.22;10562547;28;20027;-32
2022/10/19 08:21:45;;;;;;;3.05;2.17;;;;;;;19.04;63.80;97348.13;10555847;28;20405;-31
2022/10/19 08:26:46;;;;;;;4.10;1.98;;;;;;;19.03;63.71;97348.97;10561969;28;20088;-30
2022/10/19 08:31:48;;;;;;;4.03;1.80;;;;;;;19.04;64.20;97343.06;10557905;28;20039;-31
2022/10/19 08:36:48;;;;;;;2.95;1.73;;;;;;;19.01;63.82;97340.50;10554723;28;20050;-30
2022/10/19 08:42:00;;;;;;;2.73;1.87;;;;;;;19.05;64.73;97349.84;10558429;28;20039;-31
2022/10/19 08:47:25;;;;;;;2.60;1.63;;;;;;;19.02;63.88;97344.75;10564865;28;20286;-31
2022/10/19 08:52:34;;;;;;;3.78;1.95;;;;;;;19.00;63.81;97346.44;10561660;28;20470;-31
2022/10/19 08:57:52;;;;;;;2.88;1.73;;;;;;;19.07;65.75;97340.53;10564450;28;20520;-30
2022/10/19 09:03:14;;;;;;;1.95;1.77;;;;;;;19.14;65.81;97330.47;10553376;28;20032;-30
2022/10/19 09:08:16;;;;;;;1.70;1.60;;;;;;;19.14;64.90;97327.06;10556199;28;20034;-30
2022/10/19 09:13:20;;;;;;;3.22;1.50;;;;;;;19.09;64.43;97324.50;10560999;28;20455;-31
2022/10/19 09:18:23;;;;;;;2.67;1.73;;;;;;;19.04;64.13;97320.22;10565161;28;20081;-30
2022/10/19 09:23:30;;;;;;;2.45;1.90;;;;;;;19.04;63.84;97313.47;10552789;28;20024;-32
2022/10/19 09:28:45;;;;;;;2.30;2.10;;;;;;;18.99;63.95;97311.75;10551665;28;20036;-30
2022/10/19 09:33:52;;;;;;;2.50;1.98;;;;;;;19.05;65.48;97319.38;10554199;28;20036;-30
2022/10/19 09:38:52;;;;;;;2.38;2.17;;;;;;;19.04;64.71;97321.09;10552763;28;20058;-31
2022/10/19 09:43:54;;;;;;;2.93;2.00;;;;;;;19.03;63.80;97311.78;10556251;28;20101;-30
2022/10/19 09:48:54;;;;;;;2.45;1.98;;;;;;;19.01;64.36;97312.59;10557415;28;20470;-30
2022/10/19 09:53:55;;;;;;;2.28;1.77;;;;;;;18.99;64.71;97299.06;10569150;28;20030;-30
2022/10/19 09:58:57;;;;;;;2.80;2.53;;;;;;;19.04;65.65;97303.31;10556713;28;20032;-30
2022/10/19 10:04:15;;;;;;;3.17;2.58;;;;;;;19.15;66.01;97310.97;10556600;28;20035;-31
2022/10/19 10:09:25;;;;;;;2.67;2.33;;;;;;;19.19;65.64;97302.59;10556905;28;20030;-31
2022/10/19 10:14:32;;;;;;;2.65;2.00;;;;;;;19.15;64.68;97298.28;10555150;28;20067;-31
2022/10/19 10:19:34;;;;;;;2.03;1.85;;;;;;;19.06;64.09;97300.78;10555610;28;20482;-31
2022/10/19 10:24:35;;;;;;;2.78;2.38;;;;;;;19.05;64.29;97292.31;10558036;28;20030;-30
2022/10/19 10:29:38;;;;;;;7.67;3.73;;;;;;;19.02;66.09;97294.81;10545414;28;20039;-29
2022/10/19 10:34:46;;;;;;;3.22;2.83;;;;;;;18.97;64.74;97295.63;10555971;27;20779;-31
2022/10/19 10:39:51;;;;;;;2.53;2.33;;;;;;;19.01;64.81;97289.75;10562356;28;20497;-29
2022/10/19 10:44:55;;;;;;;6.65;2.70;;;;;;;18.94;64.55;97288.00;10568013;28;20054;-30
2022/10/19 10:49:59;;;;;;;5.72;2.72;;;;;;;19.01;64.57;97277.06;10546762;28;20080;-31
2022/10/19 10:55:22;;;;;;;5.78;3.47;;;;;;;19.03;64.53;97280.47;10564702;28;20615;-31
2022/10/19 11:00:23;;;;;;;2.45;2.25;;;;;;;19.02;66.02;97266.91;10560572;28;20381;-30
2022/10/19 11:05:28;;;;;;;4.28;2.80;;;;;;;19.13;66.56;97256.81;10566899;28;20031;-30
2022/10/19 11:10:54;;;;;;;3.28;2.30;;;;;;;19.15;65.57;97245.00;10560641;28;20028;-30
2022/10/19 11:16:16;;;;;;;6.70;2.58;;;;;;;19.09;65.48;97239.91;10561155;28;20509;-31
2022/10/19 11:21:38;;;;;;;4.05;2.40;;;;;;;19.05;64.64;97231.41;10563092;28;20505;-31
2022/10/19 11:27:13;;;;;;;3.55;2.60;;;;;;;19.05;63.90;97223.81;10540686;28;20118;-31
2022/10/19 11:32:44;;;;;;;6.43;3.33;;;;;;;18.98;64.58;97208.50;10566995;28;20473;-31
2022/10/19 11:38:09;;;;;;;3.97;2.50;;;;;;;19.00;64.05;97199.25;10553018;28;20028;-31
2022/10/19 11:43:26;;;;;;;6.57;2.83;;;;;;;18.99;63.79;97187.41;10560993;28;20457;-30
2022/10/19 11:49:03;;;;;;;4.22;2.28;;;;;;;18.99;63.96;97173.00;10567613;28;20032;-30
2022/10/19 11:54:26;;;;;;;5.10;2.17;;;;;;;18.98;63.75;97153.56;10562737;28;20043;-31
2022/10/19 11:59:48;;;;;;;2.58;2.30;;;;;;;18.98;63.63;97150.16;10527712;28;20502;-30
2022/10/19 12:04:52;;;;;;;4.32;2.70;;;;;;;19.09;66.96;97133.31;10563817;28;20493;-30
2022/10/19 12:10:19;;;;;;;4.35;3.20;;;;;;;19.17;67.09;97141.81;10563469;28;20047;-31
2022/10/19 12:15:19;;;;;;;;;;;;;;;19.16;65.74;97130.78;10564054;28;20061;-31
2022/10/19 12:20:27;;;;;;;2.88;2.10;;;;;;;19.08;64.18;97126.53;10554552;28;19911;-30
2022/10/19 12:25:28;;;;;;;3.28;2.50;;;;;;;19.05;64.35;97126.50;10561059;28;20821;-30
2022/10/19 12:30:28;;;;;;;3.35;2.85;;;;;;;19.04;64.18;97124.81;10556466;28;20036;-30
2022/10/19 12:35:56;;;;;;;5.60;2.70;;;;;;;19.03;64.31;97113.84;10552494;28;20032;-30
2022/10/19 12:41:21;;;;;;;3.15;2.38;;;;;;;18.95;63.80;97101.94;10561286;28;20027;-30
2022/10/19 12:46:37;;;;;;;2.92;2.50;;;;;;;19.03;63.99;97112.97;10560906;28;20028;-30
2022/10/19 12:51:45;;;;;;;5.57;2.73;;;;;;;19.04;64.39;97105.38;10554751;28;20063;-32
2022/10/19 12:56:49;;;;;;;7.07;3.80;;;;;;;19.02;64.47;97101.13;10560067;28;20114;-31
2022/10/19 13:01:50;;;;;;;7.35;3.78;;;;;;;18.97;64.43;97097.72;10553734;28;20050;-31
2022/10/19 13:07:00;;;;;;;11.95;8.02;;;;;;;18.86;68.92;97089.22;10551963;28;20554;-30
2022/10/19 13:12:13;;;;;;;10.20;6.22;;;;;;;19.09;67.96;97080.00;10571509;28;20068;-31
2022/10/19 13:17:32;;;;;;;10.48;4.32;;;;;;;19.14;66.63;97081.72;10566388;28;20493;-32
2022/10/19 13:22:32;;;;;;;7.30;3.63;;;;;;;19.12;64.99;97082.53;10554875;28;20031;-31
2022/10/19 13:27:37;;;;;;;5.70;3.63;;;;;;;19.06;64.59;97082.50;10551931;28;20028;-30
2022/10/19 13:32:44;;;;;;;9.45;3.85;;;;;;;19.06;64.54;97074.91;10562009;28;20034;-30
2022/10/19 13:37:45;;;;;;;5.63;4.28;;;;;;;19.04;64.52;97082.53;10546964;28;20077;-30
2022/10/19 13:42:45;;;;;;;6.68;5.10;;;;;;;19.04;65.71;97085.06;10562815;28;20165;-30
2022/10/19 13:47:49;;;;;;;6.22;5.38;;;;;;;18.99;64.26;97060.53;10570155;28;20529;-30
2022/10/19 13:53:20;;;;;;;6.78;4.93;;;;;;;19.01;63.95;97064.75;10546303;28;20036;-31
2022/10/19 13:58:35;;;;;;;7.78;3.40;;;;;;;18.94;63.95;97052.91;10562845;28;20102;-30
2022/10/19 14:04:30;;;;;;;7.45;4.85;;;;;;;19.01;64.10;97063.91;10560357;28;20509;-31
2022/10/19 14:09:46;;;;;;;8.25;5.97;;;;;;;19.07;67.46;97063.91;10518536;28;20043;-31
2022/10/19 14:14:46;;;;;;;10.45;5.28;;;;;;;19.16;67.46;97066.50;10561204;28;20061;-30
2022/10/19 14:19:53;;;;;;;6.33;4.60;;;;;;;19.18;67.75;97067.34;10557542;28;20032;-30
2022/10/19 14:25:00;;;;;;;6.95;3.10;;;;;;;19.07;64.67;97063.91;10568616;28;20648;-31
2022/10/19 14:30:01;;;;;;;3.50;2.92;;;;;;;19.02;64.35;97068.13;10565673;28;20035;-30
2022/10/19 14:35:12;;;;;;;4.10;2.35;;;;;;;19.02;64.16;97050.38;10567087;28;20043;-30
2022/10/19 14:40:26;;;;;;;5.10;3.30;;;;;;;19.01;63.82;97057.13;10566296;28;20114;-30
2022/10/19 14:45:29;;;;;;;4.30;2.35;;;;;;;19.00;64.08;97050.38;10568239;28;20092;-31
2022/10/19 14:50:33;;;;;;;5.00;2.70;;;;;;;19.00;63.79;97049.53;10565663;28;20023;-30
2022/10/19 14:55:38;;;;;;;12.55;8.23;;;;;;;18.91;67.82;97045.25;10567366;28;20119;-30
2022/10/19 15:00:39;;;;;;;11.75;9.18;;;;;;;18.72;69.57;97057.84;10561340;28;20024;-30
2022/10/19 15:05:47;;;;;;;14.43;8.13;;;;;;;18.74;67.76;97056.19;10558342;28;20063;-31
2022/10/19 15:10:47;;;;;;;7.65;6.40;;;;;;;18.85;66.33;97059.63;10556932;28;20067;-30
2022/10/19 15:15:51;;;;;;;9.15;6.88;;;;;;;19.01;68.04;97062.19;10573037;28;20120;-32
2022/10/19 15:21:13;;;;;;;7.60;6.13;;;;;;;19.08;68.53;97052.94;10557466;28;20464;-30
2022/10/19 15:26:16;;;;;;;6.80;4.82;;;;;;;19.10;66.10;97048.72;10559494;28;20412;-30
2022/10/19 15:31:19;;;;;;;4.13;3.70;;;;;;;19.03;64.61;97041.91;10563833;28;20068;-30
2022/10/19 15:36:21;;;;;;;5.80;5.15;;;;;;;18.98;64.21;97038.50;10570657;28;20114;-30
2022/10/19 15:41:28;;;;;;;4.95;4.15;;;;;;;18.99;64.53;97041.06;10566463;28;20030;-31
2022/10/19 15:46:32;;;;;;;;;;;;;;;18.99;64.40;97032.63;10569190;28;20027;-32
2022/10/19 15:51:36;;;;;;;9.02;4.97;;;;;;;18.97;64.47;97030.06;10561274;28;19915;-31
2022/10/19 15:56:38;;;;;;;13.85;8.38;;;;;;;18.95;67.54;97030.91;10542130;28;20039;-30
2022/10/19 16:01:39;;;;;;;12.75;6.13;;;;;;;18.90;65.94;97025.81;10555650;28;20032;-30
2022/10/19 16:06:41;;;;;;;6.82;5.90;;;;;;;18.95;65.00;97020.75;10552689;28;20023;-30
2022/10/19 16:11:42;;;;;;;5.45;4.93;;;;;;;18.97;64.42;97021.59;10556991;28;20611;-30
2022/10/19 16:16:42;;;;;;;8.20;5.13;;;;;;;18.98;65.60;97020.75;10560829;28;20092;-30
2022/10/19 16:21:43;;;;;;;6.97;4.57;;;;;;;19.09;67.01;97014.03;10553101;28;20039;-30
2022/10/19 16:26:43;;;;;;;12.68;8.52;;;;;;;18.96;68.24;97004.69;10559680;28;20040;-30
2022/10/19 16:31:44;;;;;;;6.53;5.17;;;;;;;19.08;65.69;97004.72;10551910;28;20032;-31
2022/10/19 16:36:44;;;;;;;5.97;4.90;;;;;;;19.05;65.44;96995.41;10560823;28;20036;-30
2022/10/19 16:41:45;;;;;;;9.68;3.03;;;;;;;19.00;64.47;96992.00;10558267;28;20027;-31
2022/10/19 16:46:45;;;;;;;2.37;2.17;;;;;;;18.97;64.09;96988.59;10560225;28;20027;-31
2022/10/19 16:51:45;;;;;;;3.30;2.27;;;;;;;18.98;63.95;96990.28;10559568;28;20297;-31
2022/10/19 16:56:47;;;;;;;3.40;2.40;;;;;;;18.98;64.04;96982.69;10561166;28;20292;-30
2022/10/19 17:01:47;;;;;;;3.42;2.40;;;;;;;18.98;63.96;96988.63;10559039;28;20032;-32
2022/10/19 17:06:47;;;;;;;2.63;2.43;;;;;;;18.95;64.10;96972.53;10558979;28;20032;-31
2022/10/19 17:11:48;;;;;;;2.80;1.73;;;;;;;18.98;63.73;96972.53;10564718;28;20393;-30
2022/10/19 17:16:48;;;;;;;3.80;2.13;;;;;;;18.98;63.84;96967.47;10558119;28;20317;-31
2022/10/19 17:21:49;;;;;;;5.75;4.75;;;;;;;19.00;65.41;96971.69;10559022;28;20028;-30
2022/10/19 17:26:51;;;;;;;5.90;4.78;;;;;;;19.15;67.77;96975.94;10562617;28;20111;-30
2022/10/19 17:31:52;;;;;;;9.85;4.10;;;;;;;19.19;67.11;96983.59;10555464;28;20036;-31
2022/10/19 17:36:52;;;;;;;5.57;4.22;;;;;;;19.15;66.29;96988.63;10561352;28;20034;-30
2022/10/19 17:41:53;;;;;;;3.77;2.43;;;;;;;19.10;64.15;97013.19;10558402;27;20062;-31
2022/10/19 17:46:53;;;;;;;3.55;1.98;;;;;;;19.04;63.75;97024.16;10554876;28;20044;-34
2022/10/19 17:51:54;;;;;;;4.55;2.17;;;;;;;19.04;64.00;97036.00;10571521;28;20035;-32
2022/10/19 17:56:54;;;;;;;2.40;2.03;;;;;;;19.02;63.94;97035.16;10549616;28;20119;-31
2022/10/19 18:01:54;;;;;;;5.00;3.10;;;;;;;19.02;63.88;97030.06;10558226;28;20038;-30
2022/10/19 18:06:55;;;;;;;3.70;2.67;;;;;;;19.01;64.16;97023.31;10557705;28;20809;-31
2022/10/19 18:11:55;;;;;;;2.97;2.13;;;;;;;19.02;64.11;97022.47;10557941;28;20505;-30
2022/10/19 18:16:56;;;;;;;5.45;2.90;;;;;;;19.01;63.84;97023.31;10553461;28;20039;-30
2022/10/19 18:21:56;;;;;;;2.90;2.27;;;;;;;18.97;63.78;97021.59;10562650;28;20512;-32
2022/10/19 18:26:56;;;;;;;8.48;5.05;;;;;;;19.09;67.72;97021.63;10563081;28;20290;-32
2022/10/19 18:31:57;;;;;;;8.37;4.17;;;;;;;19.18;66.99;97016.59;10562225;28;20101;-30
2022/10/19 18:36:57;;;;;;;7.45;4.45;;;;;;;19.20;67.05;97013.25;10575797;28;20297;-31
2022/10/19 18:41:58;;;;;;;5.57;3.23;;;;;;;19.15;65.95;96991.19;10565918;28;20027;-32
2022/10/19 18:46:58;;;;;;;6.87;4.63;;;;;;;19.10;64.43;96992.88;10559986;28;20281;-31
2022/10/19 18:51:59;;;;;;;3.47;2.95;;;;;;;19.05;64.39;96974.25;10559698;28;20092;-31
2022/10/19 18:56:59;;;;;;;2.27;2.07;;;;;;;19.03;64.18;96966.66;10560422;28;20406;-30
2022/10/19 19:02:00;;;;;;;5.75;2.53;;;;;;;19.03;64.14;96965.78;10560041;28;20293;-31
2022/10/19 19:07:00;;;;;;;4.03;2.67;;;;;;;19.02;64.27;96971.72;10556923;28;20074;-31
2022/10/19 19:12:00;;;;;;;4.30;2.93;;;;;;;19.03;64.49;96964.13;10558869;28;20107;-30
2022/10/19 19:17:01;;;;;;;4.43;3.00;;;;;;;19.03;64.19;96966.66;10564206;28;20035;-30
2022/10/19 19:22:03;;;;;;;3.57;3.20;;;;;;;19.02;64.22;96981.88;10556858;28;20053;-35
2022/10/19 19:27:04;;;;;;;3.20;2.60;;;;;;;19.00;64.12;96984.38;10550826;28;20060;-30
2022/10/19 19:32:04;;;;;;;4.93;3.87;;;;;;;19.09;67.93;96978.50;10556420;28;20024;-30
2022/10/19 19:37:04;;;;;;;3.50;3.20;;;;;;;19.17;66.81;96986.97;10563652;28;20035;-30
2022/10/19 19:42:06;;;;;;;4.80;3.10;;;;;;;19.17;66.49;96989.50;10562173;28;20127;-31
2022/10/19 19:47:07;;;;;;;4.85;2.92;;;;;;;19.14;66.11;96997.09;10549397;28;20332;-30
2022/10/19 19:52:07;;;;;;;3.95;2.80;;;;;;;19.07;64.53;96992.84;10554931;28;20039;-30
2022/10/19 19:57:08;;;;;;;3.30;2.70;;;;;;;18.99;64.38;96985.22;10556590;28;20441;-31
2022/10/19 20:02:09;;;;;;;6.35;3.03;;;;;;;19.01;65.57;96990.31;10559548;28;20051;-31
2022/10/19 20:07:10;;;;;;;4.45;3.25;;;;;;;19.03;64.77;96992.03;10558444;28;20020;-30
2022/10/19 20:12:10;;;;;;;3.33;3.00;;;;;;;19.02;64.29;96969.19;10548147;27;20040;-31
2022/10/19 20:17:10;;;;;;;5.13;3.47;;;;;;;19.02;64.18;96962.38;10567345;28;20054;-30
2022/10/19 20:22:11;;;;;;;3.37;2.10;;;;;;;18.96;64.22;96949.72;10553451;28;20035;-31
2022/10/19 20:27:12;;;;;;;3.97;2.58;;;;;;;19.01;64.88;96959.88;10549859;28;20040;-30
2022/10/19 20:32:12;;;;;;;7.63;3.97;;;;;;;19.11;68.01;96959.91;10558537;28;20035;-31
2022/10/19 20:37:13;;;;;;;6.63;4.15;;;;;;;19.18;67.56;96958.19;10554787;28;20032;-31
2022/10/19 20:42:14;;;;;;;5.57;3.47;;;;;;;19.09;66.52;96943.78;10551988;28;20024;-31
2022/10/19 20:47:15;;;;;;;5.57;3.80;;;;;;;19.14;66.36;96933.66;10539479;28;20118;-31
2022/10/19 20:52:15;;;;;;;5.03;4.10;;;;;;;19.10;65.38;96914.19;10544459;28;20034;-31
2022/10/19 20:57:15;;;;;;;3.97;3.40;;;;;;;19.05;64.24;96926.03;10549630;28;20036;-30
2022/10/19 21:02:16;;;;;;;6.27;3.40;;;;;;;19.03;64.04;96920.13;10561723;28;20032;-31
2022/10/19 21:07:17;;;;;;;3.83;3.08;;;;;;;19.03;64.15;96909.97;10559580;28;20289;-30
2022/10/19 21:12:17;;;;;;;3.60;3.30;;;;;;;19.03;64.39;96909.97;10557216;28;20081;-30
2022/10/19 21:17:17;;;;;;;2.80;2.60;;;;;;;19.02;64.49;96918.44;10559416;28;20035;-30
2022/10/19 21:22:18;;;;;;;3.50;3.13;;;;;;;19.03;64.46;96909.97;10557672;28;20026;-30
2022/10/19 21:27:18;;;;;;;5.40;4.10;;;;;;;19.02;64.39;96903.19;10552873;28;20106;-31
2022/10/19 21:32:19;;;;;;;4.50;3.27;;;;;;;19.06;66.63;96894.72;10558438;28;20031;-30
2022/10/19 21:37:20;;;;;;;4.18;3.55;;;;;;;19.12;67.75;96885.44;10562651;28;20047;-31
2022/10/19 21:42:20;;;;;;;3.40;3.00;;;;;;;19.17;67.27;96888.81;10561076;28;20029;-30
2022/10/19 21:47:20;;;;;;;4.63;3.10;;;;;;;19.13;65.89;96887.13;10559775;28;20284;-30
2022/10/19 21:52:21;;;;;;;5.17;3.00;;;;;;;19.11;65.94;96887.97;10555775;28;20109;-30
2022/10/19 21:57:21;;;;;;;3.80;2.80;;;;;;;19.08;64.70;96903.22;10558080;28;20028;-30
2022/10/19 22:02:22;;;;;;;4.63;3.67;;;;;;;19.07;65.61;96904.03;10557570;28;20277;-30
2022/10/19 22:07:22;;;;;;;3.10;2.80;;;;;;;18.99;64.40;96877.84;10554947;28;20051;-31
2022/10/19 22:12:22;;;;;;;3.53;3.03;;;;;;;19.02;64.45;96886.25;10555959;28;20027;-30
2022/10/19 22:17:23;;;;;;;3.38;3.03;;;;;;;19.02;64.74;96881.19;10559990;28;20293;-30
2022/10/19 22:22:23;;;;;;;3.43;2.33;;;;;;;19.03;64.50;96874.44;10558041;28;20051;-30
2022/10/19 22:27:23;;;;;;;3.27;2.97;;;;;;;19.00;64.34;96862.59;10561618;28;20074;-30
2022/10/19 22:32:24;;;;;;;3.70;2.70;;;;;;;18.99;64.25;96860.06;10568616;28;20032;-29
2022/10/19 22:37:24;;;;;;;4.00;3.30;;;;;;;19.08;67.51;96865.16;10566578;28;20039;-31
2022/10/19 22:42:25;;;;;;;2.93;2.70;;;;;;;19.12;67.55;96866.81;10563250;28;20032;-29
2022/10/19 22:47:25;;;;;;;2.40;2.20;;;;;;;19.12;66.00;96859.22;10571786;28;20036;-30
2022/10/19 22:52:25;;;;;;;4.07;2.60;;;;;;;19.11;66.27;96862.59;10561929;28;20032;-30
2022/10/19 22:57:26;;;;;;;2.90;2.60;;;;;;;19.10;66.25;96860.91;10564694;28;20042;-31
2022/10/19 23:02:28;;;;;;;4.90;2.67;;;;;;;19.07;65.21;96855.81;10566874;28;20669;-31
2022/10/19 23:07:28;;;;;;;2.25;2.05;;;;;;;19.05;64.66;96868.53;10563611;28;20032;-31
2022/10/19 23:12:28;;;;;;;3.20;2.90;;;;;;;19.02;64.26;96868.50;10569673;28;20409;-31
2022/10/19 23:17:29;;;;;;;2.40;2.20;;;;;;;19.03;64.38;96874.44;10565156;28;20128;-31
2022/10/19 23:22:29;;;;;;;2.97;2.57;;;;;;;19.00;64.13;96865.13;10556709;28;20042;-31
2022/10/19 23:27:29;;;;;;;3.00;2.70;;;;;;;19.02;64.37;96857.53;10565845;28;20027;-30
2022/10/19 23:32:30;;;;;;;2.70;2.50;;;;;;;18.98;64.35;96835.53;10559722;28;20023;-30